createdAt,value
2017-06-26T00:01:30.725Z,-90
2017-06-26T00:03:58.871Z,-89
2017-06-26T00:06:26.404Z,-91
2017-06-26T00:08:53.971Z,-90
2017-06-26T00:11:21.379Z,-90
2017-06-26T00:13:48.687Z,-89
2017-06-26T00:16:16.231Z,-90
2017-06-26T00:18:43.997Z,-90
2017-06-26T00:21:18.480Z,-89
2017-06-26T00:23:46.011Z,-90
2017-06-26T00:26:13.436Z,-90
2017-06-26T00:28:40.754Z,-90
2017-06-26T00:31:08.306Z,-90
2017-06-26T00:33:35.607Z,-91
2017-06-26T00:36:03.205Z,-90
2017-06-26T00:38:30.510Z,-90
2017-06-26T00:40:57.715Z,-90
2017-06-26T00:43:25.374Z,-91
2017-06-26T00:45:52.791Z,-89
2017-06-26T00:48:20.412Z,-89
2017-06-26T00:50:48.046Z,-91
2017-06-26T00:53:15.398Z,-89
2017-06-26T00:55:50.253Z,-90
2017-06-26T00:58:17.550Z,-90
2017-06-26T01:00:46.000Z,-90
2017-06-26T01:03:13.676Z,-91
2017-06-26T01:05:45.879Z,-91
2017-06-26T01:08:20.479Z,-90
2017-06-26T01:10:48.177Z,-90
2017-06-26T01:13:15.500Z,-90
2017-06-26T01:15:46.088Z,-90
2017-06-26T01:18:18.442Z,-90
2017-06-26T01:20:46.028Z,-89
2017-06-26T01:23:14.442Z,-89
2017-06-26T01:25:46.022Z,-89
2017-06-26T01:28:13.369Z,-90
2017-06-26T01:30:48.146Z,-90
2017-06-26T01:33:15.438Z,-90
2017-06-26T01:35:46.694Z,-89
2017-06-26T01:38:14.013Z,-91
2017-06-26T01:40:41.976Z,-90
2017-06-26T01:43:14.391Z,-89
2017-06-26T01:45:42.399Z,-91
2017-06-26T01:48:09.975Z,-89
2017-06-26T01:50:37.150Z,-90
2017-06-26T01:53:04.477Z,-90
2017-06-26T01:55:32.502Z,-89
2017-06-26T01:57:59.829Z,-88
2017-06-26T02:00:30.013Z,-88
2017-06-26T02:02:57.635Z,-90
2017-06-26T02:05:25.677Z,-89
2017-06-26T02:07:52.987Z,-90
2017-06-26T02:10:20.406Z,-88
2017-06-26T02:12:48.004Z,-90
2017-06-26T02:15:22.969Z,-89
2017-06-26T08:08:21.962Z,-60
2017-06-26T08:10:49.227Z,-59
2017-06-26T08:13:16.898Z,-61
2017-06-26T08:15:44.182Z,-62
2017-06-26T08:18:11.470Z,-59
2017-06-26T08:20:38.758Z,-59
2017-06-26T08:23:06.046Z,-59
2017-06-26T08:25:33.313Z,-60
2017-06-26T08:28:00.595Z,-60
2017-06-26T08:30:27.890Z,-60
2017-06-26T08:32:55.365Z,-58
2017-06-26T08:35:22.652Z,-57
2017-06-26T08:37:49.931Z,-60
2017-06-26T08:40:17.224Z,-60
2017-06-26T08:42:44.517Z,-61
2017-06-26T08:45:11.785Z,-61
2017-06-26T08:47:39.444Z,-61
2017-06-26T08:50:06.729Z,-60
2017-06-26T08:52:34.001Z,-58
2017-06-26T08:55:01.273Z,-61
2017-06-26T08:57:28.536Z,-61
2017-06-26T08:59:55.804Z,-61
2017-06-26T09:02:23.115Z,-60
2017-06-26T09:04:50.384Z,-61
2017-06-26T09:07:17.675Z,-60
2017-06-26T09:09:44.971Z,-60
2017-06-26T09:12:12.245Z,-59
2017-06-26T09:14:39.525Z,-60
2017-06-26T09:17:06.802Z,-60
2017-06-26T09:19:34.072Z,-60
2017-06-26T09:22:01.347Z,-60
2017-06-26T09:24:28.625Z,-59
2017-06-26T09:26:56.288Z,-60
2017-06-26T09:29:23.568Z,-61
2017-06-26T09:31:50.855Z,-61
2017-06-26T09:34:18.122Z,-59
2017-06-26T11:41:31.574Z,-58
2017-06-26T11:43:58.844Z,-59
2017-06-26T11:46:26.170Z,-60
2017-06-26T11:48:53.772Z,-58
2017-06-26T11:51:21.043Z,-60
2017-06-26T11:53:51.005Z,-60
2017-06-26T11:56:18.335Z,-59
2017-06-26T11:58:45.607Z,-60
2017-06-26T12:01:13.517Z,-59
2017-06-26T12:03:41.088Z,-58
2017-06-26T12:06:08.363Z,-58
2017-06-26T12:08:35.645Z,-60
2017-06-26T12:11:02.908Z,-60
2017-06-26T12:13:30.262Z,-58
2017-06-26T12:15:57.525Z,-57
2017-06-26T12:18:24.796Z,-59
2017-06-26T12:20:52.055Z,-60
2017-06-26T12:23:19.344Z,-60
2017-06-26T12:25:46.635Z,-60
2017-06-26T12:28:13.919Z,-61
2017-06-26T12:30:41.203Z,-57
2017-06-26T12:33:08.487Z,-60
2017-06-26T12:35:35.762Z,-58
2017-06-26T12:38:03.087Z,-60
2017-06-26T12:40:30.365Z,-59
2017-06-26T12:42:57.648Z,-58
2017-06-26T12:45:24.920Z,-59
2017-06-26T12:47:52.184Z,-60
2017-06-26T12:50:19.451Z,-60
2017-06-26T12:52:46.724Z,-57
2017-06-26T12:55:15.509Z,-86
2017-06-26T12:57:43.192Z,-58
2017-06-26T13:00:10.573Z,-60
2017-06-26T13:02:38.030Z,-61
2017-06-26T13:05:05.313Z,-60
2017-06-26T13:07:32.951Z,-60
2017-06-26T13:10:00.648Z,-61
2017-06-26T13:12:28.100Z,-59
2017-06-26T13:14:55.554Z,-59
2017-06-26T13:17:22.838Z,-59
2017-06-26T13:19:50.878Z,-60
2017-06-26T13:22:18.192Z,-60
2017-06-26T13:24:45.485Z,-61
2017-06-26T13:27:12.804Z,-58
2017-06-26T13:29:40.293Z,-60
2017-06-26T13:32:07.757Z,-60
2017-06-26T13:34:35.211Z,-61
2017-06-26T13:37:02.516Z,-60
2017-06-26T13:39:29.813Z,-60
2017-06-26T13:41:57.313Z,-61
2017-06-26T13:44:25.009Z,-60
2017-06-26T13:46:52.301Z,-60
2017-06-26T13:49:19.600Z,-59
2017-06-26T13:51:46.901Z,-60
2017-06-26T13:54:14.327Z,-60
2017-06-26T13:56:41.611Z,-60
2017-06-26T13:59:08.898Z,-60
2017-06-26T14:01:36.584Z,-60
2017-06-26T14:04:04.156Z,-60
2017-06-26T14:06:31.542Z,-61
2017-06-26T14:08:59.045Z,-59
2017-06-26T14:11:26.714Z,-60
2017-06-26T14:13:54.286Z,-61
2017-06-26T14:16:21.573Z,-60
2017-06-26T14:18:48.854Z,-59
2017-06-26T14:21:16.527Z,-61
2017-06-26T14:23:43.820Z,-60
2017-06-26T14:26:11.134Z,-60
2017-06-26T14:28:38.432Z,-60
2017-06-26T14:31:05.877Z,-57
2017-06-26T14:33:33.267Z,-60
2017-06-26T14:36:00.549Z,-60
2017-06-26T14:38:28.630Z,-61
2017-06-26T14:40:56.251Z,-59
2017-06-26T14:43:23.706Z,-60
2017-06-26T14:45:51.003Z,-60
2017-06-26T14:48:18.301Z,-59
2017-06-26T14:50:45.593Z,-59
2017-06-26T14:53:12.904Z,-60
2017-06-26T14:55:40.186Z,-60
2017-06-26T14:58:08.041Z,-57
2017-06-26T15:00:35.360Z,-60
2017-06-26T15:03:02.662Z,-60
2017-06-26T15:05:30.193Z,-60
2017-06-26T15:07:57.678Z,-58
2017-06-26T15:10:25.199Z,-59
2017-06-26T15:12:52.582Z,-58
2017-06-26T15:15:20.413Z,-59
2017-06-26T15:17:47.715Z,-61
2017-06-26T15:20:15.002Z,-60
2017-06-26T15:22:42.286Z,-58
2017-06-26T15:25:09.629Z,-60
2017-06-26T15:27:36.939Z,-60
2017-06-26T15:30:04.253Z,-60
2017-06-26T15:32:31.544Z,-59
2017-06-26T15:34:58.845Z,-60
2017-06-26T15:37:26.138Z,-60
2017-06-26T15:39:53.423Z,-60
2017-06-26T15:42:21.149Z,-60
2017-06-26T15:44:48.457Z,-59
2017-06-26T15:47:16.424Z,-59
2017-06-26T15:49:43.750Z,-61
2017-06-26T15:52:11.216Z,-59
2017-06-26T15:54:38.726Z,-59
2017-06-26T15:57:06.043Z,-59
2017-06-26T15:59:33.655Z,-59
2017-06-26T16:02:01.111Z,-58
2017-06-26T16:04:29.563Z,-60
2017-06-26T16:06:56.995Z,-60
2017-06-26T16:09:25.289Z,-60
2017-06-26T16:11:52.588Z,-60
2017-06-26T16:14:19.874Z,-59
2017-06-26T16:16:47.161Z,-60
2017-06-26T16:19:14.455Z,-59
2017-06-26T16:21:41.749Z,-59
2017-06-26T16:24:09.044Z,-59
2017-06-26T16:26:36.600Z,-60
2017-06-26T16:29:03.904Z,-60
2017-06-26T16:31:31.196Z,-60
2017-06-26T16:33:58.484Z,-60
2017-06-26T16:36:25.891Z,-60
2017-06-26T16:38:53.194Z,-58
2017-06-26T16:41:20.496Z,-59
2017-06-26T16:43:47.770Z,-59
2017-06-26T16:46:15.069Z,-60
2017-06-26T16:48:42.608Z,-59
2017-06-26T16:51:10.586Z,-59
2017-06-26T16:53:38.091Z,-59
2017-06-26T16:56:05.362Z,-58
2017-06-26T18:18:11.038Z,-90
2017-06-26T18:20:38.351Z,-89
2017-06-26T18:23:05.652Z,-86
2017-06-26T18:25:32.961Z,-87
2017-06-26T18:28:00.285Z,-89
2017-06-26T18:30:27.570Z,-88
2017-06-26T18:32:54.889Z,-86
2017-06-26T18:35:22.196Z,-90
2017-06-26T18:37:49.681Z,-91
2017-06-26T18:40:17.088Z,-92
2017-06-26T18:42:44.441Z,-91
2017-06-26T18:45:11.732Z,-89
2017-06-26T18:47:39.056Z,-89
2017-06-26T18:50:06.758Z,-90
2017-06-26T18:52:34.058Z,-89
2017-06-26T18:55:01.375Z,-89
2017-06-26T18:57:29.101Z,-92
2017-06-26T18:59:56.381Z,-87
2017-06-26T19:02:23.694Z,-88
2017-06-26T19:04:51.396Z,-91
2017-06-26T19:07:18.742Z,-91
2017-06-26T19:09:46.983Z,-90
2017-06-26T19:12:14.312Z,-91
2017-06-26T19:14:41.990Z,-89
2017-06-26T19:17:09.742Z,-88
2017-06-26T19:19:37.190Z,-88
2017-06-26T19:22:04.481Z,-89
2017-06-26T19:24:31.777Z,-88
2017-06-26T19:26:59.897Z,-86
2017-06-26T19:29:27.266Z,-85
2017-06-26T19:31:54.960Z,-87
2017-06-26T19:34:22.268Z,-87
2017-06-26T19:36:50.592Z,-93
2017-06-26T19:39:18.350Z,-92
2017-06-26T19:41:45.652Z,-89
2017-06-26T19:44:12.962Z,-90
2017-06-26T19:46:40.266Z,-90
2017-06-26T19:49:08.235Z,-91
2017-06-26T19:51:36.764Z,-89
2017-06-26T19:54:04.197Z,-89
2017-06-26T19:56:31.498Z,-88
2017-06-26T19:58:58.848Z,-91
2017-06-26T20:01:26.215Z,-93
2017-06-26T20:03:53.526Z,-90
2017-06-26T20:06:21.025Z,-90
2017-06-26T20:08:48.326Z,-88
2017-06-26T20:11:15.640Z,-90
2017-06-26T20:13:42.970Z,-88
2017-06-26T20:16:10.281Z,-88
2017-06-26T20:18:37.590Z,-91
2017-06-26T20:21:05.305Z,-89
2017-06-26T20:23:32.609Z,-89
2017-06-26T20:25:59.922Z,-90
2017-06-26T20:28:27.614Z,-90
2017-06-26T20:30:54.926Z,-89
2017-06-26T20:33:22.244Z,-92
2017-06-26T20:35:50.016Z,-90
2017-06-26T20:38:17.741Z,-92
2017-06-26T20:40:45.207Z,-93
2017-06-26T20:43:12.514Z,-91
2017-06-26T20:45:39.821Z,-91
2017-06-26T20:48:07.548Z,-91
2017-06-26T20:50:34.857Z,-91
2017-06-26T20:53:02.163Z,-92
2017-06-26T20:55:29.512Z,-92
2017-06-26T20:57:57.232Z,-92
2017-06-26T21:00:24.551Z,-92
2017-06-26T21:02:51.987Z,-91
2017-06-26T21:05:19.470Z,-92
2017-06-26T21:07:46.868Z,-92
2017-06-26T21:10:14.242Z,-92
2017-06-26T21:12:41.614Z,-92
2017-06-26T21:15:09.005Z,-93
2017-06-26T21:17:36.773Z,-92
2017-06-26T21:20:07.103Z,-93
2017-06-26T21:22:34.461Z,-91
2017-06-26T21:25:01.829Z,-91
2017-06-26T21:27:29.137Z,-92
2017-06-26T21:29:56.452Z,-91
2017-06-26T21:32:23.757Z,-91
2017-06-26T21:34:51.073Z,-90
2017-06-26T21:37:18.792Z,-92
2017-06-26T21:39:46.124Z,-90
2017-06-26T21:42:13.833Z,-90
2017-06-26T21:44:41.153Z,-89
2017-06-26T21:47:08.455Z,-91
2017-06-26T21:49:35.772Z,-91
2017-06-26T21:52:03.073Z,-90
2017-06-26T21:54:30.384Z,-87
2017-06-26T21:56:57.708Z,-88
2017-06-26T21:59:24.993Z,-90
2017-06-26T22:01:52.286Z,-89
2017-06-26T22:04:19.990Z,-91
2017-06-26T22:06:47.385Z,-90
2017-06-26T22:09:14.713Z,-90
2017-06-26T22:11:42.054Z,-90
2017-06-26T22:14:09.383Z,-90
2017-06-26T22:16:36.676Z,-91
2017-06-26T22:19:04.641Z,-90
2017-06-26T22:21:31.952Z,-90
2017-06-26T22:23:59.253Z,-90
2017-06-26T22:26:26.955Z,-88
2017-06-26T22:28:54.270Z,-91
2017-06-26T22:31:21.590Z,-91
2017-06-26T22:33:49.286Z,-90
2017-06-26T22:36:16.592Z,-90
2017-06-26T22:38:43.894Z,-90
2017-06-26T22:43:47.421Z,-58
2017-06-26T22:46:14.708Z,-60
2017-06-26T22:48:42.000Z,-60
2017-06-26T22:51:09.282Z,-58
2017-06-26T22:53:36.572Z,-59
2017-06-26T22:56:03.868Z,-60
2017-06-26T22:58:31.146Z,-61
2017-06-26T23:00:58.441Z,-60
2017-06-26T23:03:25.741Z,-58
2017-06-26T23:05:53.437Z,-60
2017-06-26T23:08:20.748Z,-59
2017-06-26T23:10:48.074Z,-59
2017-06-26T23:13:15.531Z,-59
2017-06-26T23:15:43.056Z,-60
2017-06-26T23:18:10.365Z,-61
2017-06-26T23:20:37.665Z,-59
2017-06-26T23:23:04.941Z,-60
2017-06-26T23:25:32.221Z,-60
2017-06-26T23:27:59.717Z,-60
2017-06-26T23:30:27.009Z,-60
2017-06-26T23:32:54.307Z,-61
2017-06-26T23:35:21.989Z,-59
2017-06-26T23:37:49.274Z,-59
2017-06-26T23:40:16.569Z,-60
2017-06-26T23:42:44.166Z,-58
2017-06-26T23:45:11.622Z,-57
2017-06-26T23:47:39.146Z,-58
2017-06-26T23:50:06.472Z,-56
2017-06-26T23:52:33.950Z,-58
2017-06-26T23:55:01.658Z,-58
2017-06-26T23:57:29.201Z,-58
2017-06-26T23:59:56.924Z,-57
